Turin, Iowa
Current Conditions -  °F | °C
As of 3:54 AM on Saturday 20 Dec 2014 (Local Time) from KTQE Reporting Station
Haze Haze  
Wind Chill: 24°   Ceiling: 300
Heat Index: 32°   Visibility: 2mi
Dew Point: 31°   Wind: 10mph
Humidity: 96%   Direction: 150°SSE
Pressure: 30.11"   Gusts: NA
Location:  42.02°N, 95.97°W
Report Text: KTQE 200954Z AUTO 15009KT 2SM BR OVC003 00/M01 A3011 RMK AO2 SLP203 T00001006
Loading
Personal Weather Stations






























Interactive Weather Map New forecast layout! Learn more

10-Day Weather Forecast

Advertisements
Track Severe Weather on mobile